Time;durP1;ratioP1;P1;durP2;ratioP2;P2;SDS_P1;SDS_P2;PMS_P1;PMS_P2;Temp;Humidity;BMP_temperature;BMP_pressure;BME280_temperature;BME280_humidity;BME280_pressure;Samples;Min_cycle;Max_cycle;Signal;HPM_P1;HPM_P2
2021/09/20 00:00:48;;;;;;;6.15;1.40;;;;;;;13.42;72.46;101593.91;4947019;28;20046;-79
2021/09/20 00:03:15;;;;;;;4.88;1.35;;;;;;;13.47;71.96;101602.03;4948427;28;20418;-78
2021/09/20 00:05:42;;;;;;;10.13;1.85;;;;;;;13.46;72.17;101597.63;4941770;28;20086;-78
2021/09/20 00:08:08;;;;;;;8.38;1.63;;;;;;;13.40;72.35;101601.78;4965928;28;20047;-78
2021/09/20 00:10:36;;;;;;;6.93;1.20;;;;;;;13.34;72.39;101598.38;4941591;28;20058;-78
2021/09/20 00:13:03;;;;;;;7.03;1.70;;;;;;;13.40;72.19;101601.78;4938189;28;20418;-78
2021/09/20 00:15:30;;;;;;;6.90;2.08;;;;;;;13.42;71.97;101599.47;4965969;28;20069;-79
2021/09/20 00:17:57;;;;;;;5.40;1.50;;;;;;;13.43;72.19;101601.09;4966579;28;20046;-79
2021/09/20 00:20:24;;;;;;;5.78;1.63;;;;;;;13.40;72.09;101602.59;4965668;28;20046;-79
2021/09/20 00:22:52;;;;;;;5.10;1.13;;;;;;;13.32;72.38;101605.44;4949631;28;20396;-79
2021/09/20 00:25:20;;;;;;;4.63;1.85;;;;;;;13.28;72.31;101610.91;4965240;28;20043;-78
2021/09/20 00:27:46;;;;;;;4.93;1.42;;;;;;;13.26;72.51;101617.97;4964749;28;20042;-78
2021/09/20 00:30:14;;;;;;;6.93;1.63;;;;;;;13.22;72.39;101617.81;4945153;28;20047;-79
2021/09/20 00:32:41;;;;;;;4.15;2.15;;;;;;;13.18;72.67;101619.69;4966689;28;20049;-78
2021/09/20 00:35:10;;;;;;;6.43;1.50;;;;;;;13.18;72.68;101632.75;4966008;28;20049;-79
2021/09/20 00:37:37;;;;;;;8.50;1.80;;;;;;;13.15;72.71;101620.34;4948231;28;20074;-78
2021/09/20 00:40:06;;;;;;;10.15;2.00;;;;;;;13.05;72.93;101629.06;4934003;28;20062;-79
2021/09/20 00:42:33;;;;;;;10.38;2.25;;;;;;;12.94;73.22;101621.50;4946910;28;20057;-79
2021/09/20 00:44:59;;;;;;;8.27;1.40;;;;;;;12.89;73.48;101624.47;4964262;28;20039;-79
2021/09/20 00:47:26;;;;;;;12.35;1.83;;;;;;;12.93;73.50;101617.06;4948076;28;20055;-79
2021/09/20 00:49:53;;;;;;;3.67;1.40;;;;;;;12.92;73.26;101629.38;4949628;28;20045;-78
2021/09/20 00:52:20;;;;;;;6.85;1.85;;;;;;;12.90;73.48;101634.44;4941418;28;20113;-79
2021/09/20 00:54:50;;;;;;;7.70;2.55;;;;;;;12.84;73.50;101631.84;4965166;28;20043;-79
2021/09/20 00:57:17;;;;;;;6.65;1.58;;;;;;;12.81;73.53;101635.31;4965227;28;20101;-79
2021/09/20 00:59:44;;;;;;;11.30;1.67;;;;;;;12.85;73.60;101641.00;4947671;28;20046;-78
2021/09/20 01:02:11;;;;;;;8.40;1.60;;;;;;;12.86;73.63;101641.84;4964220;28;20047;-79
2021/09/20 01:04:38;;;;;;;6.47;1.58;;;;;;;12.84;73.27;101633.81;4966142;28;20039;-78
2021/09/20 01:07:05;;;;;;;8.02;1.67;;;;;;;12.79;73.65;101636.81;4964646;28;20050;-78
2021/09/20 01:09:35;;;;;;;10.80;1.77;;;;;;;12.77;73.60;101631.59;4948896;28;20043;-79
2021/09/20 01:12:02;;;;;;;9.27;2.03;;;;;;;12.76;73.73;101627.19;4947183;28;20263;-78
2021/09/20 01:14:29;;;;;;;8.70;1.35;;;;;;;12.75;73.60;101633.91;4965404;28;20049;-78
2021/09/20 01:16:56;;;;;;;7.13;1.20;;;;;;;12.74;73.51;101629.47;4941041;28;20058;-78
2021/09/20 01:19:22;;;;;;;5.57;1.40;;;;;;;12.71;73.74;101634.91;4963773;28;20049;-79
2021/09/20 01:21:50;;;;;;;10.20;1.92;;;;;;;12.72;73.73;101637.34;4965132;28;20043;-79
2021/09/20 01:24:17;;;;;;;9.55;3.13;;;;;;;12.69;73.71;101635.25;4965021;28;20053;-78
2021/09/20 01:26:43;;;;;;;9.52;2.30;;;;;;;12.64;73.84;101640.19;4948490;28;20086;-78
2021/09/20 01:29:10;;;;;;;8.88;2.20;;;;;;;12.64;73.80;101635.44;4956924;28;20047;-79
2021/09/20 01:31:37;;;;;;;7.07;1.60;;;;;;;12.60;73.94;101640.03;4944375;28;20051;-78
2021/09/20 01:34:04;;;;;;;8.27;1.60;;;;;;;12.60;73.97;101633.69;4965733;28;20078;-79
2021/09/20 01:36:30;;;;;;;7.63;1.30;;;;;;;12.55;74.18;101626.34;4965269;28;20046;-78
2021/09/20 01:38:57;;;;;;;5.88;1.58;;;;;;;12.50;73.96;101629.31;4966488;28;20043;-79
2021/09/20 01:41:24;;;;;;;6.25;1.50;;;;;;;12.49;74.23;101627.72;4952113;28;20046;-78
2021/09/20 01:43:50;;;;;;;7.60;1.88;;;;;;;12.47;74.33;101623.66;4970094;28;20057;-78
2021/09/20 01:46:17;;;;;;;12.88;3.88;;;;;;;12.42;74.10;101627.41;4943271;28;20049;-78
2021/09/20 01:48:44;;;;;;;10.38;2.67;;;;;;;12.39;74.55;101633.63;4951055;28;20051;-79
2021/09/20 01:51:11;;;;;;;7.75;1.95;;;;;;;12.33;74.57;101625.84;4969845;28;20050;-79
2021/09/20 01:53:38;;;;;;;7.57;1.98;;;;;;;12.28;74.63;101623.28;4968497;28;20066;-78
2021/09/20 01:56:04;;;;;;;8.40;2.65;;;;;;;12.23;74.85;101629.00;4969134;28;20045;-78
2021/09/20 01:58:31;;;;;;;6.35;1.85;;;;;;;12.21;74.96;101626.56;4967854;28;20518;-78
2021/09/20 02:00:58;;;;;;;9.48;1.92;;;;;;;12.13;75.09;101619.91;4965584;28;20402;-79
2021/09/20 02:03:25;;;;;;;9.43;1.77;;;;;;;12.18;75.08;101616.94;4969303;28;22398;-79
2021/09/20 02:05:52;;;;;;;5.65;1.60;;;;;;;12.22;74.96;101622.66;4951521;28;20058;-78
2021/09/20 02:08:18;;;;;;;11.30;1.88;;;;;;;12.19;75.27;101612.19;4943297;28;20049;-78
2021/09/20 02:10:45;;;;;;;8.75;2.08;;;;;;;12.19;75.16;101614.97;4949157;28;20141;-79
2021/09/20 02:13:12;;;;;;;10.73;1.88;;;;;;;12.16;75.01;101624.78;4942764;28;20039;-77
2021/09/20 02:15:38;;;;;;;7.13;2.05;;;;;;;12.17;74.91;101622.84;4967085;28;20125;-79
2021/09/20 02:18:05;;;;;;;11.13;2.40;;;;;;;12.12;75.36;101623.03;4967902;28;20055;-78
2021/09/20 02:20:32;;;;;;;9.98;1.75;;;;;;;12.11;75.26;101622.22;4967742;28;20069;-78
2021/09/20 02:22:58;;;;;;;12.45;2.50;;;;;;;12.08;75.20;101619.28;4968070;28;20387;-78
2021/09/20 02:25:25;;;;;;;5.63;1.88;;;;;;;12.06;75.22;101632.69;4969115;28;20047;-78
2021/09/20 02:27:52;;;;;;;9.38;1.80;;;;;;;12.04;75.39;101638.59;4969248;28;20047;-78
2021/09/20 02:30:19;;;;;;;10.95;2.40;;;;;;;12.02;75.36;101646.41;4968776;28;20054;-78
2021/09/20 02:32:46;;;;;;;13.73;4.70;;;;;;;12.03;75.67;101648.03;4968710;28;20062;-78
2021/09/20 02:35:12;;;;;;;10.25;2.20;;;;;;;12.03;75.26;101641.66;4967637;28;20055;-78
2021/09/20 02:37:39;;;;;;;16.05;2.92;;;;;;;11.97;75.53;101654.09;4969169;28;20050;-79
2021/09/20 02:40:08;;;;;;;6.40;2.50;;;;;;;11.92;75.72;101649.56;4932859;28;20082;-78
2021/09/20 02:42:34;;;;;;;13.30;2.05;;;;;;;11.89;75.74;101652.97;4968093;28;21072;-78
2021/09/20 02:45:03;;;;;;;9.93;1.70;;;;;;;11.87;75.61;101654.47;4959865;28;20050;-79
2021/09/20 02:47:29;;;;;;;7.82;1.70;;;;;;;11.87;75.80;101660.00;4924109;28;20046;-79
2021/09/20 02:49:56;;;;;;;9.48;1.85;;;;;;;11.85;75.94;101667.88;4920065;28;20612;-79
2021/09/20 02:52:23;;;;;;;9.27;2.35;;;;;;;11.88;75.49;101661.66;4928892;28;20051;-79
2021/09/20 02:54:50;;;;;;;8.48;1.80;;;;;;;11.90;75.57;101659.34;4968682;28;20531;-79
2021/09/20 02:57:16;;;;;;;17.95;3.50;;;;;;;11.91;75.61;101667.38;4966588;28;20047;-78
2021/09/20 02:59:43;;;;;;;5.13;1.45;;;;;;;11.93;75.47;101664.25;4969016;28;20043;-79
2021/09/20 03:02:10;;;;;;;9.77;2.38;;;;;;;11.93;75.48;101675.34;4949038;28;20427;-78
2021/09/20 03:04:37;;;;;;;11.45;2.05;;;;;;;11.90;75.74;101676.00;4951749;28;20101;-78
2021/09/20 03:07:03;;;;;;;6.45;1.70;;;;;;;11.90;75.58;101676.81;4945423;28;20049;-78
2021/09/20 03:09:30;;;;;;;9.43;1.63;;;;;;;11.92;75.69;101673.69;4932883;28;20047;-78
2021/09/20 03:11:57;;;;;;;14.70;2.67;;;;;;;11.93;75.53;101669.78;4967506;28;20035;-79
2021/09/20 03:14:24;;;;;;;6.03;1.65;;;;;;;11.95;75.63;101673.88;4969087;28;20050;-78
2021/09/20 03:16:52;;;;;;;8.25;1.95;;;;;;;11.96;75.49;101678.28;4952023;28;20034;-78
2021/09/20 03:19:19;;;;;;;5.50;1.45;;;;;;;11.96;75.53;101669.13;4967980;28;20038;-78
2021/09/20 03:21:46;;;;;;;7.22;1.50;;;;;;;11.96;75.76;101680.22;4967383;28;20138;-78
2021/09/20 03:24:13;;;;;;;9.10;1.85;;;;;;;11.99;75.55;101662.94;4967751;28;20053;-78
2021/09/20 03:26:41;;;;;;;6.28;1.23;;;;;;;11.97;75.63;101677.13;4949597;28;20047;-79
2021/09/20 03:29:08;;;;;;;8.40;1.20;;;;;;;11.95;75.63;101684.16;4966019;28;20046;-78
2021/09/20 03:31:35;;;;;;;4.68;1.50;;;;;;;11.97;75.75;101681.84;4968120;28;20113;-78
2021/09/20 03:34:01;;;;;;;9.55;1.73;;;;;;;11.97;75.47;101676.28;4968376;28;20049;-78
2021/09/20 03:36:28;;;;;;;10.55;2.33;;;;;;;11.95;75.61;101673.03;4950271;28;20818;-79
2021/09/20 03:38:55;;;;;;;5.88;1.02;;;;;;;11.92;75.82;101674.53;4951291;28;20307;-78
2021/09/20 03:41:23;;;;;;;12.55;4.45;;;;;;;11.88;76.16;101679.13;4951323;28;20047;-78
2021/09/20 03:43:49;;;;;;;9.98;1.58;;;;;;;11.85;76.22;101682.56;4967182;28;20089;-78
2021/09/20 03:46:16;;;;;;;10.02;2.33;;;;;;;11.82;76.30;101680.44;4968594;28;20085;-78
2021/09/20 03:48:43;;;;;;;6.65;2.10;;;;;;;11.84;76.32;101688.41;4968243;28;20051;-79
2021/09/20 03:51:10;;;;;;;9.38;1.67;;;;;;;11.86;76.39;101681.38;4965185;28;20042;-78
2021/09/20 03:53:37;;;;;;;5.40;1.50;;;;;;;11.89;76.39;101691.00;4966644;28;20038;-78
2021/09/20 03:56:04;;;;;;;10.27;2.55;;;;;;;11.94;76.13;101682.53;4967368;28;20113;-79
2021/09/20 03:58:31;;;;;;;12.52;2.70;;;;;;;11.98;75.80;101694.59;4967651;28;21539;-78
2021/09/20 04:00:58;;;;;;;9.15;2.67;;;;;;;11.95;75.96;101700.78;4949553;28;20600;-78
2021/09/20 04:03:26;;;;;;;6.65;1.92;;;;;;;11.96;76.00;101694.94;4949827;28;20410;-78
2021/09/20 04:05:53;;;;;;;16.55;3.17;;;;;;;11.93;75.97;101708.66;4950095;28;20038;-78
2021/09/20 04:08:26;;;;;;;8.45;1.67;;;;;;;11.86;76.18;101713.91;4966108;28;20038;-78
2021/09/20 04:10:54;;;;;;;7.28;1.60;;;;;;;11.81;76.64;101711.31;4966277;28;20115;-78
2021/09/20 04:13:21;;;;;;;6.20;1.40;;;;;;;11.82;76.61;101715.69;4950758;28;20053;-79
2021/09/20 04:15:53;;;;;;;8.25;2.08;;;;;;;11.82;76.63;101718.47;4950021;28;20510;-79
2021/09/20 04:18:26;;;;;;;12.57;2.58;;;;;;;11.79;76.75;101719.13;4966121;28;20475;-78
2021/09/20 04:20:55;;;;;;;10.63;1.65;;;;;;;11.82;76.53;101716.50;4963672;28;20038;-78
2021/09/20 04:23:23;;;;;;;9.85;1.63;;;;;;;11.84;76.48;101724.50;4948663;28;20060;-78
2021/09/20 04:25:51;;;;;;;7.35;2.35;;;;;;;11.84;76.56;101732.81;4949693;28;20047;-79
2021/09/20 04:28:19;;;;;;;10.02;2.55;;;;;;;11.83;76.84;101732.03;4966951;28;20042;-78
2021/09/20 04:30:47;;;;;;;9.68;1.70;;;;;;;11.90;76.75;101742.59;4967345;28;20541;-78
2021/09/20 04:33:16;;;;;;;9.60;1.90;;;;;;;11.93;77.15;101731.66;4963495;28;20065;-78
2021/09/20 04:35:43;;;;;;;11.30;1.90;;;;;;;12.01;77.31;101732.78;4941582;28;20043;-79
2021/09/20 04:38:11;;;;;;;14.27;4.43;;;;;;;12.10;77.33;101737.16;4940846;28;20411;-78
2021/09/20 04:40:38;;;;;;;12.10;1.70;;;;;;;12.19;77.18;101734.34;4967891;28;20050;-78
2021/09/20 04:43:07;;;;;;;9.38;2.55;;;;;;;12.25;77.45;101743.31;4966579;28;20062;-78
2021/09/20 04:45:35;;;;;;;11.55;2.80;;;;;;;12.31;77.50;101731.69;4963916;28;20138;-79
2021/09/20 04:48:03;;;;;;;9.27;1.80;;;;;;;12.33;77.55;101736.91;4965752;28;20071;-78
2021/09/20 04:50:30;;;;;;;11.43;1.92;;;;;;;12.34;77.59;101750.47;4948549;28;20042;-78
2021/09/20 04:52:57;;;;;;;11.70;1.88;;;;;;;12.38;77.56;101745.88;4966270;28;20051;-78
2021/09/20 04:55:23;;;;;;;6.95;1.98;;;;;;;12.42;77.84;101755.16;4965442;28;20088;-78
2021/09/20 04:57:50;;;;;;;5.78;1.80;;;;;;;12.44;77.68;101752.06;4964789;28;20058;-78
2021/09/20 05:00:17;;;;;;;7.55;2.13;;;;;;;12.46;77.97;101756.16;4965279;28;20054;-78
2021/09/20 05:02:44;;;;;;;8.32;1.77;;;;;;;12.48;77.89;101753.84;4964508;28;20050;-78
2021/09/20 05:05:12;;;;;;;16.60;4.00;;;;;;;12.51;78.21;101763.47;4965588;28;20125;-78
2021/09/20 05:07:39;;;;;;;10.20;2.17;;;;;;;12.57;78.32;101765.75;4964904;28;20550;-78
2021/09/20 05:10:07;;;;;;;6.22;2.22;;;;;;;12.61;78.35;101766.69;4966947;28;20043;-78
2021/09/20 05:12:33;;;;;;;9.48;2.03;;;;;;;12.66;78.21;101765.69;4950184;28;20418;-78
2021/09/20 05:15:00;;;;;;;6.63;1.98;;;;;;;12.67;78.49;101782.03;4964332;28;20192;-78
2021/09/20 05:17:27;;;;;;;6.18;2.03;;;;;;;12.71;78.37;101780.19;4966715;28;20042;-78
2021/09/20 05:19:54;;;;;;;9.88;2.55;;;;;;;12.73;78.61;101777.91;4964608;28;20475;-78
2021/09/20 05:22:20;;;;;;;10.18;2.08;;;;;;;12.73;78.46;101783.44;4957124;28;20086;-78
2021/09/20 05:24:47;;;;;;;8.93;2.67;;;;;;;12.74;78.86;101784.28;4941092;28;20045;-78
2021/09/20 05:27:14;;;;;;;7.97;2.30;;;;;;;12.78;78.70;101788.03;4964499;28;20031;-78
2021/09/20 05:29:40;;;;;;;11.20;2.00;;;;;;;12.84;78.55;101781.94;4966855;28;20093;-78
2021/09/20 05:32:07;;;;;;;5.20;1.83;;;;;;;12.86;78.63;101786.34;4965674;28;20055;-78
2021/09/20 05:34:34;;;;;;;9.10;2.20;;;;;;;12.86;78.67;101780.78;4964625;28;20046;-78
2021/09/20 05:37:00;;;;;;;10.95;2.10;;;;;;;12.87;78.59;101785.22;4948434;28;20047;-78
2021/09/20 05:39:27;;;;;;;8.82;2.40;;;;;;;12.82;78.51;101798.13;4948345;28;20042;-78
2021/09/20 05:41:54;;;;;;;6.03;2.10;;;;;;;12.75;78.15;101797.03;4965623;28;20047;-78
2021/09/20 05:44:21;;;;;;;7.95;2.20;;;;;;;12.65;78.59;101797.41;4966690;28;20049;-78
2021/09/20 05:46:47;;;;;;;12.50;2.80;;;;;;;12.60;78.62;101800.38;4960683;28;20054;-78
2021/09/20 05:49:14;;;;;;;10.73;1.80;;;;;;;12.56;78.67;101794.66;4965084;28;20074;-78
2021/09/20 05:51:41;;;;;;;10.30;1.95;;;;;;;12.51;78.94;101797.63;4960868;28;20057;-79
2021/09/20 05:54:08;;;;;;;9.82;2.83;;;;;;;12.53;79.01;101795.31;4965452;28;20050;-78
2021/09/20 05:56:35;;;;;;;7.15;2.10;;;;;;;12.54;79.60;101798.91;4967563;28;20198;-78
2021/09/20 05:59:03;;;;;;;11.13;2.47;;;;;;;12.56;79.29;101804.94;4964567;28;20106;-78
2021/09/20 06:01:30;;;;;;;6.43;1.98;;;;;;;12.60;79.56;101801.16;4966009;28;20042;-78
2021/09/20 06:03:57;;;;;;;10.80;1.90;;;;;;;12.64;79.35;101796.59;4965075;28;20475;-78
2021/09/20 06:06:24;;;;;;;8.50;1.90;;;;;;;12.68;79.30;101814.22;4964245;28;20039;-78
2021/09/20 06:08:51;;;;;;;6.93;2.15;;;;;;;12.72;79.24;101809.63;4958951;28;20039;-78
2021/09/20 06:11:18;;;;;;;8.80;2.65;;;;;;;12.76;79.23;101807.78;4947940;28;20070;-78
2021/09/20 06:13:45;;;;;;;6.82;2.28;;;;;;;12.78;79.45;101802.75;4954395;28;20054;-78
2021/09/20 06:16:13;;;;;;;8.32;1.88;;;;;;;12.80;79.41;101816.28;4963531;28;20066;-78
2021/09/20 06:18:40;;;;;;;8.77;2.10;;;;;;;12.81;79.37;101813.16;4960722;28;20053;-78
2021/09/20 06:21:08;;;;;;;7.32;2.25;;;;;;;12.81;79.12;101817.94;4948653;28;20042;-78
2021/09/20 06:23:34;;;;;;;7.68;2.00;;;;;;;12.80;79.49;101822.66;4948727;28;20089;-78
2021/09/20 06:26:01;;;;;;;7.18;2.47;;;;;;;12.80;79.68;101819.88;4967285;28;20042;-78
2021/09/20 06:28:28;;;;;;;6.47;1.95;;;;;;;12.83;79.57;101827.56;4967305;28;20051;-78
2021/09/20 06:30:55;;;;;;;4.85;1.77;;;;;;;12.88;79.53;101828.50;4967877;28;20043;-78
2021/09/20 06:33:21;;;;;;;11.02;2.17;;;;;;;12.92;79.61;101835.03;4967011;28;20035;-78
2021/09/20 06:35:49;;;;;;;9.20;2.13;;;;;;;12.96;79.77;101819.31;4969303;28;20053;-78
2021/09/20 06:38:15;;;;;;;8.77;2.30;;;;;;;13.00;79.78;101825.84;4970217;28;20039;-78
2021/09/20 06:40:42;;;;;;;8.20;3.42;;;;;;;13.05;79.81;101831.22;4966252;28;20057;-78
2021/09/20 06:43:09;;;;;;;10.60;2.25;;;;;;;13.07;79.80;101826.16;4967513;28;20410;-78
2021/09/20 06:45:35;;;;;;;5.95;2.22;;;;;;;13.11;79.83;101827.09;4952352;28;20043;-78
2021/09/20 06:48:02;;;;;;;10.20;2.60;;;;;;;13.16;79.94;101829.69;4967916;28;20055;-78
2021/09/20 06:50:29;;;;;;;21.08;4.10;;;;;;;13.21;79.85;101835.09;4967517;28;20057;-77
2021/09/20 06:52:56;;;;;;;7.38;2.35;;;;;;;13.23;79.69;101839.16;4967183;28;20035;-80
2021/09/20 06:55:22;;;;;;;7.55;3.33;;;;;;;13.26;79.93;101840.44;4968257;28;20053;-79
2021/09/20 06:57:51;;;;;;;9.10;2.03;;;;;;;13.28;79.79;101844.53;4962619;28;20513;-78
2021/09/20 07:00:17;;;;;;;8.00;2.00;;;;;;;13.32;79.96;101851.03;4967125;28;20042;-77
2021/09/20 07:02:44;;;;;;;11.13;2.92;;;;;;;13.35;79.96;101855.91;4949236;28;20121;-78
2021/09/20 07:05:12;;;;;;;14.98;3.42;;;;;;;13.37;80.07;101850.00;4968724;28;20042;-77
2021/09/20 07:07:39;;;;;;;10.45;3.08;;;;;;;13.36;80.27;101851.16;4967404;28;20045;-79
2021/09/20 07:10:06;;;;;;;11.63;2.38;;;;;;;13.37;80.41;101850.81;4950139;28;20038;-78
2021/09/20 07:12:33;;;;;;;12.82;2.60;;;;;;;13.40;80.50;101857.69;4948821;28;20039;-78
2021/09/20 07:15:00;;;;;;;10.23;3.15;;;;;;;13.41;80.74;101859.31;4968498;28;20042;-78
2021/09/20 07:17:27;;;;;;;12.43;2.85;;;;;;;13.42;80.78;101849.84;4951070;28;20055;-78
2021/09/20 07:19:54;;;;;;;30.10;5.07;;;;;;;13.43;80.61;101857.00;4957536;28;20058;-78
2021/09/20 07:22:21;;;;;;;13.43;3.10;;;;;;;13.41;80.83;101860.13;4967581;28;20046;-79
2021/09/20 07:24:48;;;;;;;10.23;3.53;;;;;;;13.39;80.64;101856.06;4968118;28;20051;-78
2021/09/20 07:27:15;;;;;;;9.57;3.08;;;;;;;13.34;80.82;101853.47;4967896;28;20049;-78
2021/09/20 07:29:41;;;;;;;13.77;3.58;;;;;;;13.33;80.88;101854.63;4968399;28;20809;-77
2021/09/20 07:32:08;;;;;;;11.75;2.83;;;;;;;13.32;81.10;101862.16;4968996;28;20130;-78
2021/09/20 07:34:35;;;;;;;8.15;2.75;;;;;;;13.34;81.37;101859.84;4969166;28;20042;-77
2021/09/20 07:37:02;;;;;;;12.23;3.28;;;;;;;13.41;81.54;101864.88;4965576;28;20057;-78
2021/09/20 07:39:30;;;;;;;6.60;2.58;;;;;;;13.51;81.69;101869.22;4955622;28;20496;-78
2021/09/20 07:41:57;;;;;;;6.60;2.13;;;;;;;13.59;81.96;101863.59;4965465;28;20042;-78
2021/09/20 07:44:24;;;;;;;6.55;1.83;;;;;;;13.66;81.62;101866.66;4968654;28;20049;-78
2021/09/20 07:46:50;;;;;;;2.97;1.77;;;;;;;13.68;81.44;101869.94;4950079;28;20133;-78
2021/09/20 07:49:17;;;;;;;3.60;1.40;;;;;;;13.68;81.42;101863.56;4950651;28;20097;-78
2021/09/20 07:51:44;;;;;;;3.95;1.75;;;;;;;13.66;81.48;101877.78;4962098;28;20511;-77
2021/09/20 07:54:11;;;;;;;9.32;2.53;;;;;;;13.64;81.24;101885.66;4964552;28;20126;-77
2021/09/20 07:56:37;;;;;;;8.85;1.92;;;;;;;13.62;81.31;101887.97;4963976;28;20129;-77
2021/09/20 07:59:04;;;;;;;7.03;2.50;;;;;;;13.64;81.22;101884.84;4964304;28;20046;-78
2021/09/20 08:01:31;;;;;;;7.00;2.50;;;;;;;13.64;81.19;101885.66;4948895;28;20053;-78
2021/09/20 08:03:58;;;;;;;7.53;2.88;;;;;;;13.64;81.25;101884.84;4961580;28;20093;-78
2021/09/20 08:06:25;;;;;;;26.27;5.18;;;;;;;13.65;81.04;101892.06;4951707;28;20126;-78
2021/09/20 08:08:52;;;;;;;8.25;2.83;;;;;;;13.66;81.04;101900.03;4966913;28;20046;-78
2021/09/20 08:11:18;;;;;;;9.70;3.17;;;;;;;13.68;81.09;101908.06;4970427;28;20061;-78
2021/09/20 08:13:46;;;;;;;7.43;3.60;;;;;;;13.67;81.11;101903.66;4985191;28;20050;-77
2021/09/20 08:16:13;;;;;;;5.90;3.25;;;;;;;13.69;81.04;101916.06;4951737;28;20491;-77
2021/09/20 08:18:40;;;;;;;17.65;6.00;;;;;;;13.73;81.27;101916.22;4962342;28;20491;-77
2021/09/20 08:21:07;;;;;;;9.73;5.38;;;;;;;13.89;81.33;101920.03;4954706;28;20471;-77
2021/09/20 08:23:35;;;;;;;8.30;4.22;;;;;;;13.95;80.94;101913.91;4972266;28;20031;-77
2021/09/20 08:26:02;;;;;;;7.65;4.70;;;;;;;14.03;81.15;101929.72;4972236;28;20054;-77
2021/09/20 08:28:29;;;;;;;7.80;3.95;;;;;;;14.13;80.86;101936.06;4971712;28;20791;-77
2021/09/20 08:30:56;;;;;;;6.57;4.18;;;;;;;14.30;81.05;101936.72;4972303;28;20049;-78
2021/09/20 08:33:23;;;;;;;5.82;3.13;;;;;;;14.50;80.83;101935.09;4960077;28;20042;-77
2021/09/20 08:35:49;;;;;;;4.40;2.72;;;;;;;14.67;80.51;101937.69;4972355;28;20057;-77
2021/09/20 08:38:16;;;;;;;3.03;1.70;;;;;;;14.86;80.57;101946.34;4972250;28;20047;-77
2021/09/20 08:40:43;;;;;;;1.70;1.10;;;;;;;15.07;80.81;101946.28;4972361;28;20074;-77
2021/09/20 08:43:10;;;;;;;2.38;1.50;;;;;;;15.13;80.13;101954.09;4979258;28;20551;-78
2021/09/20 08:45:37;;;;;;;3.22;1.38;;;;;;;15.16;79.79;101958.97;4972458;28;20049;-77
2021/09/20 08:48:04;;;;;;;3.38;1.25;;;;;;;15.21;79.77;101955.94;4937896;28;20583;-77
2021/09/20 08:50:34;;;;;;;2.75;1.10;;;;;;;15.32;79.55;101953.53;4952337;28;20050;-77
2021/09/20 08:53:03;;;;;;;4.25;1.83;;;;;;;15.49;80.12;101958.09;4971105;28;20034;-77
2021/09/20 08:55:32;;;;;;;4.95;1.02;;;;;;;15.69;79.79;101954.34;4955099;28;20047;-77
2021/09/20 08:57:59;;;;;;;9.20;1.40;;;;;;;15.84;79.46;101964.81;4971840;28;20074;-78
2021/09/20 09:00:26;;;;;;;2.38;0.93;;;;;;;16.01;78.82;101972.09;4954651;28;20047;-78
2021/09/20 09:02:53;;;;;;;2.88;1.00;;;;;;;16.14;78.32;101966.16;4971567;28;20058;-77
2021/09/20 09:05:26;;;;;;;1.48;0.80;;;;;;;16.36;76.15;101962.78;4971576;28;20043;-78
2021/09/20 09:07:59;;;;;;;1.85;0.70;;;;;;;16.77;77.93;101978.38;4938563;28;20042;-77
2021/09/20 09:10:29;;;;;;;1.92;0.80;;;;;;;17.14;77.13;101979.00;4971843;28;20121;-78
2021/09/20 09:12:56;;;;;;;2.30;0.80;;;;;;;17.42;75.59;101982.50;4971929;28;20043;-77
2021/09/20 09:15:25;;;;;;;4.03;1.02;;;;;;;17.60;73.93;101988.59;4971696;28;20129;-78
2021/09/20 09:17:56;;;;;;;2.53;0.90;;;;;;;18.07;72.91;101986.53;4970871;28;20046;-77
2021/09/20 09:20:30;;;;;;;2.67;1.80;;;;;;;18.52;71.82;101988.72;4971501;28;20043;-77
2021/09/20 09:23:03;;;;;;;4.63;2.42;;;;;;;18.52;70.19;101979.50;4971426;28;20053;-77
2021/09/20 09:25:46;;;;;;;6.82;2.78;;;;;;;18.32;67.77;101981.44;4971858;28;20138;-77
2021/09/20 09:28:22;;;;;;;5.13;3.05;;;;;;;18.43;68.70;101979.69;4971873;28;20042;-78
2021/09/20 09:30:58;;;;;;;3.60;2.60;;;;;;;19.11;67.82;101979.06;4972307;28;20114;-78
2021/09/20 09:33:35;;;;;;;4.53;3.08;;;;;;;19.74;66.87;101984.97;4971683;28;20119;-77
2021/09/20 09:36:03;;;;;;;4.35;2.78;;;;;;;20.31;65.39;101972.56;4971616;28;20041;-77
2021/09/20 09:38:31;;;;;;;3.53;2.42;;;;;;;20.57;64.57;101975.34;4961850;28;20035;-78
2021/09/20 09:41:00;;;;;;;4.47;2.17;;;;;;;20.88;63.26;101977.69;4952164;28;20050;-78
2021/09/20 09:43:40;;;;;;;5.25;2.78;;;;;;;21.32;61.62;101988.19;4954408;28;20054;-81
2021/09/20 09:46:21;;;;;;;3.30;2.25;;;;;;;21.70;61.04;101985.72;4964328;28;20046;-77
2021/09/20 09:48:49;;;;;;;3.50;1.85;;;;;;;22.21;60.41;101987.72;4952124;29;20059;-78
2021/09/20 09:51:19;;;;;;;3.30;2.03;;;;;;;22.63;59.51;101992.78;4957637;28;20070;-77
2021/09/20 09:53:48;;;;;;;2.05;1.48;;;;;;;22.98;58.12;101992.88;4971024;28;20400;-77
2021/09/20 09:56:17;;;;;;;4.47;2.53;;;;;;;23.39;57.29;102001.84;4953925;28;20055;-78
2021/09/20 09:58:57;;;;;;;5.47;1.65;;;;;;;23.72;54.33;102000.66;4971600;28;20046;-78
2021/09/20 10:01:35;;;;;;;3.97;1.75;;;;;;;23.62;54.78;102005.06;4974087;28;20501;-77
2021/09/20 10:04:15;;;;;;;6.50;2.05;;;;;;;23.52;54.35;102001.06;4956902;28;20050;-78
2021/09/20 10:06:42;;;;;;;3.80;1.85;;;;;;;23.54;54.47;101997.81;4964036;28;20051;-78
2021/09/20 10:09:13;;;;;;;6.18;2.03;;;;;;;23.85;53.59;102001.84;4970529;28;20046;-75
2021/09/20 10:11:47;;;;;;;5.63;1.80;;;;;;;23.91;52.98;101997.38;4975147;28;20073;-75
2021/09/20 10:14:16;;;;;;;6.57;1.60;;;;;;;24.01;52.75;101994.53;4980419;28;20059;-76
2021/09/20 10:16:47;;;;;;;2.40;1.58;;;;;;;24.06;51.69;102001.81;4972247;28;20074;-76
2021/09/20 10:19:14;;;;;;;3.10;1.25;;;;;;;24.07;51.83;102003.41;4974831;28;20049;-76
2021/09/20 10:21:41;;;;;;;3.10;1.13;;;;;;;23.85;51.16;102005.50;4974746;28;20045;-76
2021/09/20 10:24:08;;;;;;;2.85;0.90;;;;;;;23.64;50.95;102016.81;4974695;28;20039;-78
2021/09/20 10:26:35;;;;;;;4.25;1.27;;;;;;;23.52;50.70;102009.53;4975004;28;20047;-77
2021/09/20 10:29:07;;;;;;;4.43;1.30;;;;;;;23.40;50.83;102017.59;4974756;28;20053;-77
2021/09/20 10:31:35;;;;;;;4.68;1.20;;;;;;;23.46;50.82;102025.28;4974499;28;20061;-77
2021/09/20 10:34:20;;;;;;;3.03;0.90;;;;;;;23.36;50.22;102026.03;4974411;28;20047;-77
2021/09/20 10:36:54;;;;;;;3.92;0.85;;;;;;;23.22;50.62;102025.22;4965042;28;20066;-77
2021/09/20 10:39:47;;;;;;;4.25;1.42;;;;;;;23.13;50.62;102024.78;4955048;29;20416;-77
2021/09/20 10:42:36;;;;;;;3.53;0.90;;;;;;;23.01;50.39;102015.47;4955067;29;20039;-77
2021/09/20 10:45:08;;;;;;;1.42;0.50;;;;;;;22.79;51.28;102018.66;4963838;28;20058;-77
2021/09/20 10:47:46;;;;;;;1.27;0.55;;;;;;;22.75;50.93;102023.44;4973828;28;20051;-77
2021/09/20 10:50:14;;;;;;;3.05;0.82;;;;;;;22.57;51.36;102028.19;4974397;28;20074;-77
2021/09/20 10:53:33;;;;;;;3.40;0.80;;;;;;;22.11;52.06;102025.09;4969875;28;20050;-77
2021/09/20 10:56:06;;;;;;;4.93;0.95;;;;;;;21.89;52.69;102020.53;4895358;29;20087;-77
2021/09/20 10:58:35;;;;;;;4.03;0.75;;;;;;;21.78;53.06;102026.06;4895345;29;20140;-77
2021/09/20 11:01:11;;;;;;;2.00;0.75;;;;;;;21.43;53.87;102025.75;4945160;28;20054;-77
2021/09/20 11:03:44;;;;;;;2.35;0.80;;;;;;;21.16;54.47;102019.44;4974304;28;20129;-77
2021/09/20 11:06:24;;;;;;;2.53;0.75;;;;;;;20.91;54.98;102021.16;4973750;28;20047;-77
2021/09/20 11:09:02;;;;;;;3.97;0.90;;;;;;;20.76;55.52;102025.00;4974012;28;20042;-80
2021/09/20 11:14:20;;;;;;;2.37;0.60;;;;;;;20.23;56.11;102029.88;4972744;28;20069;-80
2021/09/20 11:16:53;;;;;;;1.95;0.80;;;;;;;20.10;56.34;102015.22;4973162;28;20487;-80
2021/09/20 11:24:44;;;;;;;3.13;0.80;;;;;;;19.68;57.12;102006.13;4983203;28;20384;-80
2021/09/20 11:27:29;;;;;;;3.78;1.05;;;;;;;19.49;58.04;102007.03;4961088;28;20048;-79
2021/09/20 11:30:08;;;;;;;2.55;1.45;;;;;;;19.40;58.17;102012.94;4954468;29;20047;-79
2021/09/20 11:32:56;;;;;;;3.90;1.00;;;;;;;19.25;58.49;102010.19;4954356;29;20134;-79
2021/09/20 11:35:25;;;;;;;5.30;1.98;;;;;;;19.20;58.96;102021.72;4959332;28;20057;-80
2021/09/20 11:37:54;;;;;;;5.15;0.90;;;;;;;19.17;59.14;102014.03;4939853;28;20746;-79